createdAt,value
2019-01-18T00:01:11.498Z,68.77
2019-01-18T00:06:17.792Z,69.02
2019-01-18T00:11:23.863Z,68.83
2019-01-18T00:16:29.826Z,69.15
2019-01-18T00:21:35.886Z,69.16
2019-01-18T00:26:41.871Z,69.16
2019-01-18T00:31:48.081Z,69.05
2019-01-18T00:36:54.359Z,69.01
2019-01-18T00:42:00.508Z,69.03
2019-01-18T00:47:06.649Z,69.83
2019-01-18T00:52:13.193Z,71.97
2019-01-18T00:57:19.247Z,73.67
2019-01-18T01:02:25.113Z,74.30
2019-01-18T01:07:31.101Z,74.78
2019-01-18T01:12:37.184Z,75.09
2019-01-18T01:17:43.320Z,75.05
2019-01-18T01:22:50.276Z,74.70
2019-01-18T01:27:56.524Z,74.85
2019-01-18T01:33:02.677Z,74.65
2019-01-18T01:38:08.560Z,74.29
2019-01-18T01:43:14.434Z,74.37
2019-01-18T01:48:20.538Z,75.03
2019-01-18T01:53:26.595Z,75.40
2019-01-18T01:58:32.953Z,76.21
2019-01-18T02:03:38.846Z,76.95
2019-01-18T02:08:45.898Z,77.34
2019-01-18T02:13:51.920Z,77.61
2019-01-18T02:18:57.782Z,78.39
2019-01-18T02:24:03.761Z,79.56
2019-01-18T02:29:09.715Z,80.04
2019-01-18T02:34:16.871Z,80.17
2019-01-18T02:39:23.255Z,80.07
2019-01-18T02:44:29.289Z,80.05
2019-01-18T02:49:35.488Z,79.25
2019-01-18T02:54:41.654Z,79.52
2019-01-18T02:59:47.621Z,79.73
2019-01-18T03:04:53.483Z,79.57
2019-01-18T03:09:59.461Z,79.73
2019-01-18T03:15:07.043Z,80.03
2019-01-18T03:20:14.922Z,79.79
2019-01-18T03:25:24.878Z,79.45
2019-01-18T03:30:31.038Z,78.65
2019-01-18T03:35:37.042Z,77.93
2019-01-18T03:40:42.980Z,77.85
2019-01-18T03:45:49.256Z,77.42
2019-01-18T03:50:55.138Z,78.29
2019-01-18T03:56:01.344Z,79.63
2019-01-18T04:01:07.393Z,80.07
2019-01-18T04:06:13.258Z,80.36
2019-01-18T04:11:19.141Z,79.88
2019-01-18T04:16:25.825Z,80.06
2019-01-18T04:21:31.556Z,79.58
2019-01-18T04:26:37.717Z,80.17
2019-01-18T04:31:43.981Z,80.23
2019-01-18T04:36:50.078Z,79.36
2019-01-18T04:41:56.083Z,79.16
2019-01-18T04:47:02.749Z,79.30
2019-01-18T04:52:09.034Z,79.06
2019-01-18T04:57:15.474Z,79.32
2019-01-18T05:02:21.762Z,78.64
2019-01-18T05:07:28.211Z,78.96
2019-01-18T05:12:34.182Z,78.37
2019-01-18T05:17:40.162Z,77.20
2019-01-18T05:22:46.024Z,75.96
2019-01-18T05:27:52.048Z,75.52
2019-01-18T05:32:58.367Z,74.76
2019-01-18T05:38:04.585Z,75.25
2019-01-18T05:43:10.549Z,74.40
2019-01-18T05:48:16.409Z,74.55
2019-01-18T05:53:23.001Z,74.18
2019-01-18T05:58:29.031Z,74.24
2019-01-18T06:03:35.023Z,73.46
2019-01-18T06:08:41.309Z,73.07
2019-01-18T06:13:47.203Z,72.50
2019-01-18T06:18:53.269Z,72.37
2019-01-18T06:23:59.244Z,72.66
2019-01-18T06:29:06.470Z,72.64
2019-01-18T06:34:12.530Z,73.22
2019-01-18T06:39:18.396Z,73.37
2019-01-18T06:44:24.692Z,73.29
2019-01-18T06:49:30.784Z,73.10
2019-01-18T06:54:36.833Z,73.56
2019-01-18T06:59:43.436Z,73.05
2019-01-18T07:04:49.493Z,72.98
2019-01-18T07:09:55.790Z,72.39
2019-01-18T07:15:02.272Z,72.14
2019-01-18T07:20:11.196Z,72.29
2019-01-18T07:25:20.972Z,71.86
2019-01-18T07:30:35.532Z,72.21
2019-01-18T07:35:41.397Z,72.29
2019-01-18T07:40:47.409Z,71.93
2019-01-18T07:45:53.683Z,71.61
2019-01-18T07:50:59.845Z,71.09
2019-01-18T07:56:05.807Z,71.19
2019-01-18T08:01:11.855Z,71.37
2019-01-18T08:06:17.751Z,70.25
2019-01-18T08:11:23.833Z,71.11
2019-01-18T08:16:30.028Z,70.84
2019-01-18T08:21:36.098Z,70.90
2019-01-18T08:26:42.178Z,70.28
2019-01-18T08:31:48.156Z,70.84
2019-01-18T08:36:54.547Z,70.74
2019-01-18T08:42:00.682Z,70.73
2019-01-18T08:47:06.556Z,70.51
2019-01-18T08:52:12.648Z,71.06
2019-01-18T08:57:20.344Z,70.23
2019-01-18T09:02:26.430Z,70.32
2019-01-18T09:07:32.479Z,71.05
2019-01-18T09:12:38.473Z,69.75
2019-01-18T09:17:44.453Z,69.46
2019-01-18T09:22:50.213Z,69.55
2019-01-18T09:27:56.987Z,69.50
2019-01-18T09:33:04.494Z,69.42
2019-01-18T09:38:10.589Z,69.15
2019-01-18T09:43:17.187Z,69.39
2019-01-18T09:48:23.480Z,68.76
2019-01-18T09:53:29.607Z,68.36
2019-01-18T09:58:35.625Z,68.96
2019-01-18T10:03:41.836Z,67.52
2019-01-18T10:08:47.803Z,68.27
2019-01-18T10:13:54.166Z,68.29
2019-01-18T10:19:00.522Z,68.22
2019-01-18T10:24:06.500Z,68.00
2019-01-18T10:29:12.718Z,68.05
2019-01-18T10:34:19.090Z,67.62
2019-01-18T10:39:25.140Z,67.34
2019-01-18T10:44:31.548Z,67.57
2019-01-18T10:49:37.796Z,68.69
2019-01-18T10:54:43.778Z,68.92
2019-01-18T10:59:50.089Z,69.16
2019-01-18T11:04:56.131Z,68.41
2019-01-18T11:10:01.899Z,68.02
2019-01-18T11:15:10.955Z,68.60
2019-01-18T11:20:25.013Z,68.24
2019-01-18T11:25:32.054Z,68.25
2019-01-18T11:30:38.278Z,68.73
2019-01-18T11:35:44.127Z,68.53
2019-01-18T11:40:50.222Z,69.10
2019-01-18T11:45:55.993Z,68.08
2019-01-18T11:51:01.972Z,68.30
2019-01-18T11:56:08.140Z,68.08
2019-01-18T12:01:14.328Z,67.96
2019-01-18T12:06:20.439Z,68.62
2019-01-18T12:11:26.612Z,67.72
2019-01-18T12:16:32.764Z,67.96
2019-01-18T12:21:38.733Z,67.41
2019-01-18T12:26:44.603Z,67.61
2019-01-18T12:31:53.532Z,67.72
2019-01-18T12:36:59.853Z,66.82
2019-01-18T12:42:05.898Z,66.86
2019-01-18T12:47:12.391Z,67.45
2019-01-18T12:52:18.457Z,66.79
2019-01-18T12:57:24.548Z,67.68
2019-01-18T13:02:35.309Z,67.15
2019-01-18T13:07:38.572Z,66.65
2019-01-18T13:12:44.718Z,66.64
2019-01-18T13:17:50.909Z,65.83
2019-01-18T13:22:56.962Z,64.66
2019-01-18T13:28:03.160Z,63.96
2019-01-18T13:33:09.171Z,64.84
2019-01-18T13:38:15.226Z,65.20
2019-01-18T13:43:21.264Z,65.01
2019-01-18T13:48:27.350Z,65.46
2019-01-18T13:53:33.538Z,64.39
2019-01-18T13:58:40.026Z,64.91
2019-01-18T14:03:46.402Z,64.15
2019-01-18T14:08:52.460Z,64.85
2019-01-18T14:13:58.774Z,64.46
2019-01-18T14:19:06.147Z,64.95
2019-01-18T14:24:11.953Z,64.69
2019-01-18T14:29:18.323Z,64.96
2019-01-18T14:34:24.476Z,65.55
2019-01-18T14:39:30.255Z,65.50
2019-01-18T14:44:36.502Z,65.65
2019-01-18T14:49:42.797Z,66.15
2019-01-18T14:54:48.879Z,65.96
2019-01-18T14:59:55.056Z,66.35
2019-01-18T15:05:01.131Z,66.76
2019-01-18T15:10:25.576Z,66.84
2019-01-18T15:15:31.800Z,66.82
2019-01-18T15:20:38.135Z,66.87
2019-01-18T15:25:45.403Z,67.31
2019-01-18T15:30:51.278Z,67.40
2019-01-18T15:35:57.482Z,67.23
2019-01-18T15:41:03.783Z,67.09
2019-01-18T15:46:10.088Z,67.30
2019-01-18T15:51:15.970Z,67.25
2019-01-18T15:56:21.888Z,67.30
2019-01-18T16:01:28.259Z,67.48
2019-01-18T16:06:34.308Z,67.30
2019-01-18T16:11:40.280Z,67.01
2019-01-18T16:16:46.359Z,67.07
2019-01-18T16:21:52.470Z,67.34
2019-01-18T16:26:58.424Z,67.34
2019-01-18T16:32:04.517Z,67.10
2019-01-18T16:37:10.265Z,67.43
2019-01-18T16:42:16.327Z,67.04
2019-01-18T16:47:22.647Z,67.52
2019-01-18T16:52:28.785Z,67.75
2019-01-18T16:57:34.893Z,67.44
2019-01-18T17:02:42.085Z,67.61
2019-01-18T17:07:47.975Z,67.96
2019-01-18T17:12:53.938Z,67.83
2019-01-18T17:17:59.997Z,67.82
2019-01-18T17:23:06.288Z,68.12
2019-01-18T17:28:12.281Z,68.23
2019-01-18T17:33:18.121Z,68.35
2019-01-18T17:38:27.288Z,68.39
2019-01-18T17:44:01.837Z,68.05
2019-01-18T17:49:13.805Z,67.82
2019-01-18T17:54:31.775Z,67.92
2019-01-18T17:59:55.292Z,67.78
2019-01-18T18:05:21.007Z,67.73
2019-01-18T18:10:36.179Z,67.47
2019-01-18T18:15:51.583Z,67.09
2019-01-18T18:21:08.566Z,67.21
2019-01-18T18:26:17.758Z,67.07
2019-01-18T18:31:34.522Z,66.95
2019-01-18T18:36:55.956Z,66.63
2019-01-18T18:42:07.139Z,67.04
2019-01-18T18:47:25.198Z,67.22
2019-01-18T18:52:43.152Z,68.01
2019-01-18T18:58:07.546Z,68.54
2019-01-18T19:03:28.348Z,68.87
2019-01-18T19:08:46.394Z,69.43
2019-01-18T19:13:55.574Z,69.97
2019-01-18T19:19:29.231Z,70.39
2019-01-18T19:25:17.722Z,70.81
2019-01-18T19:30:44.023Z,71.27
2019-01-18T19:36:10.863Z,71.72
2019-01-18T19:41:35.248Z,72.93
2019-01-18T19:46:48.367Z,73.43
2019-01-18T19:52:20.311Z,73.40
2019-01-18T19:57:31.513Z,73.26
2019-01-18T20:02:52.911Z,73.06
2019-01-18T20:08:17.538Z,73.13
2019-01-18T20:13:40.519Z,73.16
2019-01-18T20:19:02.218Z,73.09
2019-01-18T20:24:19.684Z,73.00
2019-01-18T20:29:37.780Z,72.84
2019-01-18T20:35:16.306Z,72.95
2019-01-18T20:40:52.963Z,72.90
2019-01-18T20:46:04.912Z,73.09
2019-01-18T20:51:32.086Z,72.80
2019-01-18T20:56:51.968Z,72.88
2019-01-18T21:02:12.053Z,72.91
2019-01-18T21:07:32.872Z,72.95
2019-01-18T21:12:47.580Z,73.11
2019-01-18T21:18:11.755Z,72.92
2019-01-18T21:23:36.159Z,72.88
2019-01-18T21:28:47.929Z,72.88
2019-01-18T21:34:06.229Z,72.86
2019-01-18T21:39:20.703Z,72.88
2019-01-18T21:44:48.159Z,72.58
2019-01-18T21:50:08.009Z,72.70
2019-01-18T21:55:17.514Z,72.42
2019-01-18T22:00:59.571Z,72.39
2019-01-18T22:06:39.543Z,72.28
2019-01-18T22:11:58.216Z,72.38
2019-01-18T22:17:18.165Z,72.37
2019-01-18T22:22:45.797Z,72.32
2019-01-18T22:28:08.793Z,72.14
2019-01-18T22:33:30.374Z,72.18
2019-01-18T22:38:51.512Z,72.16
2019-01-18T22:44:03.676Z,72.07
2019-01-18T22:49:21.905Z,72.20
2019-01-18T22:54:39.611Z,72.11
2019-01-18T22:59:48.870Z,72.20
2019-01-18T23:05:06.956Z,72.25
2019-01-18T23:10:16.191Z,72.47
2019-01-18T23:15:48.787Z,72.50
2019-01-18T23:21:10.039Z,72.76
2019-01-18T23:26:41.935Z,72.88
2019-01-18T23:31:53.914Z,72.86
2019-01-18T23:37:05.049Z,73.04
2019-01-18T23:42:20.000Z,73.03
2019-01-18T23:47:38.230Z,73.42
2019-01-18T23:53:09.931Z,73.48
2019-01-18T23:58:36.743Z,73.43
